Terminal Aerodrome Forecast
Issued by NWS

Home | Current Version | Previous Version | Text Only | Print | Product List | Glossary On
Versions: 1 2 3 4 5 6 7 8 9 10 11 12 13 14 15 16 17 18
000
FTUS46 KPDT 231700
TAFDLS
TAF
KDLS 231733Z 2318/2418 32008KT P6SM -RA SCT050 BKN070
     FM232100 32011KT P6SM -SHRA BKN040 OVC060
     FM240400 29005KT P6SM -RA OVC050
     FM241700 31010KT P6SM VCSH BKN060 OVC080=

USA.gov is the U.S. government's official web portal to all federal, state and local government web resources and services.